Aviation Digital Data Service (ADDS)

Output produced by METARs form (1348 UTC 12 December 2018)
found at http://www.aviationweather.gov/metar/data/
 
LTAF 121332Z 36011KT 9999 SCT035 17/07 Q1008 TEMPO FM1400 36015G25KT RMK RWY23 02011KT
TAF LTAF 121040Z 1212/1312 21015G25KT 9999 SCT035 BKN100 
     BECMG 1212/1214 36012KT 
     TEMPO 1214/1217 36015G25KT
       
LTCP 121250Z 26011KT 9999 -SHRA SCT015 BKN033 OVC080 09/06 Q1011
TAF LTCP 121040Z 1212/1221 23017G27KT 9999 -SHRA SCT015 BKN035 OVC080 
     TEMPO 1212/1216 2500 TSRA SCT027CB BKN033 OVC080
       
LTBJ 121320Z 32007KT 290V350 9999 BKN033 10/01 Q1018 NOSIG RMK RWY16 33007KT
TAF LTBJ 121040Z 1212/1312 35014KT 9999 SCT030 
     BECMG 1215/1218 VRB02KT CAVOK 
     PROB30 1304/1307 4000 BR 
     BECMG 1306/1309 SCT030 BKN100
       
LTAH 121206Z 35004KT 250V060 9999 BKN035 03/01 Q1012 RERASN RMK RWY13 27003KT 180V320
TAF LTAH 121040Z 1212/1221 VRB02KT 6000 -SN FEW010 BKN030 BKN100 
     TEMPO 1212/1215 2500 BR
       
LTCO 121250Z 23021G34KT 7000 -RA OVC015 04/02 Q1010
TAF COR LTCO 121040Z 1212/1221 VRB02KT 8000 -RA BKN020 
     BECMG 1212/1215 21014KT -SN 
     PROB40 
     TEMPO 1215/1218 21019G29KT 4000 SN BLSN
       
LTBT 121042Z 01006KT 320V060 9999 -RA SCT030 BKN080 06/04 Q1017 RMK RWY13 02009KT 360V060
TAF LTBT 121040Z 1212/1221 34009KT 9999 SCT030 BKN100
       
TAF LTAE 121040Z 1212/1221 26008KT 9999 FEW015 SCT040 BKN100 
     TEMPO 1213/1217 -SN SCT010 BKN030 OVC090
       
LTBY 121250Z 31014KT 6000 FEW020 SCT030 BKN070 01/M01 Q1014 RERASN
TAF LTBY 121040Z 1212/1221 VRB02KT 6000 -SN FEW010 BKN030 BKN100 
     TEMPO 1212/1215 4000 BR
       
LTAI 121320Z 35016KT 9999 SCT030 15/M01 Q1014 NOSIG RMK RWY18C 34017KT RWY36R 33016KT RWY18L 34016KT
TAF LTAI 121040Z 1212/1312 34015KT 9999 SCT030 
     BECMG 1215/1218 CAVOK
       
LTBA 121320Z 29006KT 9999 SCT030 BKN100 05/01 Q1019 NOSIG RMK RWY17L 26008G20KT 140V280 RWY05 26007KT 240V300 RWY23 28009KT
TAF LTBA 121040Z 1212/1318 28009KT 9999 SCT030 BKN080 
     BECMG 1214/1217 CAVOK 
     BECMG 1223/1302 22015KT SCT040 
     BECMG 1306/1309 CAVOK 
     BECMG 1314/1317 14008KT SCT035 BKN090
       
LTBF 121250Z 00000KT 9999 FEW019 SCT035 05/01 Q1020 NOSIG
TAF LTBF 121040Z 1212/1221 34005KT 9999 FEW015 SCT035 
     TEMPO 1212/1214 -SHRA
       
TAF LTBG 121040Z 1212/1221 25005KT 9999 SCT010 BKN035 BKN100 
     BECMG 1212/1214 SCT035 SCT100
       
LTCJ 121320Z 25005KT 210V280 3000 RA BR BKN025 OVC080 11/10 Q1013 RMK RWY20 28006KT 240V300
TAF LTCJ 121040Z 1212/1312 14016KT 9999 SCT040 BKN100 
     TEMPO 1212/1216 4000 -SHRA BKN035 BKN090 
     TEMPO 1216/1220 2500 -RA BKN035 BKN090
       
LTBH 121250Z 08006KT 040V100 CAVOK 08/M03 Q1019
TAF LTBH 121040Z 1212/1221 05008KT 9999 SCT035 
     BECMG 1216/1218 CAVOK
       
LTAY 121250Z 27012KT 9999 SCT035 BKN100 05/01 Q1015
TAF LTAY 121040Z 1212/1221 29013KT 7000 -RASN FEW010 BKN030 OVC080 
     TEMPO 1212/1215 5000 -SN BR 
     TEMPO 1215/1218 4000 -SN BR 
     BECMG 1218/1221 VRB02KT SCT035
       
LTFH 121250Z 22005KT 9999 -RA FEW012 BKN025 OVC090 07/05 Q1014 NOSIG
TAF LTFH 121040Z 1212/1221 26009KT 6000 -RA SCT010 BKN025 OVC080
       
TAF LTBL 121040Z 1212/1221 34009KT 9999 SCT030
       
LTBU 121320Z 26007KT 9999 SCT030 BKN100 05/M00 Q1018 RMK RWY22 28007KT
TAF LTBU 121040Z 1212/1312 28009KT 9999 SCT035 BKN090 
     BECMG 1213/1216 CAVOK 
     TEMPO 1301/1305 3200 BR SCT010 
     BECMG 1305/1308 22012KT 
     BECMG 1308/1311 SCT035
       
LTBS 121320Z 34011KT 9999 SCT030 13/01 Q1017 NOSIG RMK RWY19 32010KT
TAF LTBS 121040Z 1212/1312 34009KT 9999 FEW030 
     BECMG 1216/1218 CAVOK 
     BECMG 1306/1308 SCT030 BKN100
       
LTCC 121320Z 18011KT 9999 -SHRA BKN035 BKN090 10/08 Q1012 NOSIG RMK RWY16 17011KT
TAF LTCC 121040Z 1212/1312 17018KT 9999 SCT040 BKN100 
     TEMPO 1212/1216 -SHRA BKN035 BKN090 
     TEMPO 1216/1220 -SHRA BKN035 BKN090 
     PROB40 
     TEMPO 1220/1224 -RA BKN035 BKN090
       
LTFD 121250Z 11007KT 070V140 9999 SCT035 09/01 Q1018
TAF LTFD 121040Z 1212/1221 08008KT 9999 SCT035 SCT100
       
LTCA 121250Z 22008KT 9000 -RA FEW015 BKN030 BKN090 08/06 Q1010 NOSIG
TAF LTCA 121040Z 1212/1221 17008KT 9999 -RA BKN030 OVC090
       
LTAT 121320Z 24009KT 210V270 9999 BKN035 BKN090 09/03 Q1011 NOSIG RMK RWY03 21010KT
TAF LTAT 121040Z 1212/1312 21013KT 9999 -RA BKN035 BKN090 
     TEMPO 1212/1216 -SHRA 
     BECMG 1219/1221 29008KT 
     BECMG 1223/1301 SCT040 BKN100 
     PROB30 1302/1306 4000 BR
       
LTAU 121320Z 31008KT 270V340 9999 -SN SCT009 BKN025 OVC070 02/M00 Q1012 NOSIG RMK RWY07 29009KT
TAF LTAU 121040Z 1212/1312 27008KT 8000 -SN SCT008 BKN025 
     PROB40 
     TEMPO 1215/1219 2000 SN BR
       
LTCD 121250Z 17008KT 9999 -RA SCT015 BKN025 OVC070 05/04 Q1008 NOSIG
TAF LTCD 121040Z 1212/1221 VRB02KT 9999 -RA SCT015 BKN025 OVC070 
     TEMPO 1215/1217 27012KT 
     TEMPO 1215/1218 -SNRA
       
LTCE 121337Z 29008KT 7000 -SN BKN025 BKN070 01/00 Q1008 RERA NOSIG RMK RWY08R 30006KT RWY26R 32009KT RWY08L 32006KT
TAF COR LTCE 121040Z 1212/1312 25012KT 8000 -SN BKN025 BKN070 
     TEMPO 1216/1219 3500 SN BLSN 
     PROB30 
     TEMPO 1219/1222 3500 SN BLSN 
     BECMG 1303/1306 SCT030 BKN080
       
LTAC 121320Z 25008KT 9999 BKN025 BKN090 03/M03 Q1012 NOSIG RMK RWY21L 23009KT RWY03L 25006KT RWY21R 24009KT
TAF LTAC 121040Z 1212/1312 VRB02KT 9999 BKN030 BKN090 
     TEMPO 1217/1221 25012KT 4000 -SN SCT010 BKN025 
     BECMG 1300/1302 SCT040 
     TEMPO 1303/1306 4000 BR
       
LTBI 121204Z 28005KT 6000 FEW010 BKN030 BKN100 02/01 Q1013 RESN NOSIG RMK RWY08 30009KT
TAF LTBI 121040Z 1212/1221 VRB02KT 6000 -SN FEW010 BKN030 BKN100 
     TEMPO 1212/1215 4000 BR
       
TAF LTAD 121040Z 1212/1221 26008KT 9999 BKN035 
     TEMPO 1214/1216 -SHSN 
     BECMG 1214/1216 FEW010 BKN030 OVC080 
     TEMPO 1216/1220 5000 -SN
       
TAF LTBK 121040Z 1212/1221 33012KT 9999 SCT030 
     BECMG 1215/1218 VRB02KT CAVOK
       
TAF LTAB 121040Z 1212/1221 VRB02KT 9999 SCT035 BKN090 
     TEMPO 1215/1219 -SN FEW010 BKN030 OVC090
       
LTAG 121320Z 23014G25KT 9999 SCT035 17/08 Q1008 NOSIG
TAF LTAG 121040Z 1212/1312 19015KT 9999 SCT035 
     TEMPO 1212/1216 19020G30KT 
     BECMG 1216/1219 35008KT CAVOK
       
LTCN 121250Z 17008KT 100V220 6000 -SHRA SCT030 BKN080 11/07 Q1009 NOSIG
TAF LTCN 121040Z 1212/1221 12008KT 6000 -SHRA SCT030 BKN080 
     TEMPO 1212/1214 25015KT TSRA FEW020CB BKN030 
     BECMG 1216/1218 27012KT
       
TAF LTFA 121040Z 1212/1221 34009KT 9999 SCT030
       
LTAZ 121320Z 21003KT 180V240 9999 SCT030 BKN090 03/01 Q1013 RMK RWY29 21003KT 180V240
TAF LTAZ 121040Z 1212/1312 28008KT 8000 -SN SCT005 BKN025 
     PROB40 
     TEMPO 1215/1219 1600 -SN BR 
     TEMPO 1219/1223 1200 SN
       
LTCF 121250Z 19019KT 9999 BKN025 BKN070 02/00 Q1008 RERA
TAF LTCF 121040Z 1212/1221 17012KT 8000 -RA BKN025 OVC070 
     BECMG 1212/1215 -SN 
     PROB30 
     TEMPO 1216/1220 4000 -SN BLSN
       
LTAL 121250Z VRB04KT 8000 -SN BKN025 BKN080 01/01 Q1010
TAF LTAL 121040Z 1212/1221 24009KT 7000 FEW005 BKN025 BKN080 
     TEMPO 1212/1215 4000 -SN 
     BECMG 1215/1218 2500 SN
       
LTAN 121339Z 19004KT 110V270 9999 FEW010 BKN030 01/00 Q1013 RESN NOSIG RMK RWY19 25003KT
TAF LTAN 121040Z 1212/1221 36008KT 9999 SCT035 BKN100 
     TEMPO 1212/1213 -SN BKN030
       
TAF LTBN 121040Z 1212/1221 VRB02KT 6000 -SN FEW010 BKN030 BKN100 
     TEMPO 1212/1215 2500 BR
       
LTCR 121250Z 17009KT 150V210 2700 RA BR FEW007 BKN033 OVC080 11/11 Q1014
TAF LTCR 121040Z 1212/1221 14016KT 9999 SCT040 BKN100 
     TEMPO 1212/1216 4000 -SHRA BKN035 BKN090 
     TEMPO 1216/1220 2500 -RA BKN035 BKN090
       
LTAP 121320Z 09001KT 7000 -RASN SCT010 BKN033 02/01 Q1012 NOSIG RMK RWY23 10001KT
TAF LTAP 121040Z 1212/1312 VRB02KT 4000 -SN BR BKN006 OVC025 
     BECMG 1212/1216 6000 SCT010 BKN033 
     TEMPO 1221/1301 3500 BR BKN006 OVC025 
     BECMG 1305/1309 SCT035
       
LTFE 121320Z 28014KT 9999 SCT035 12/01 Q1018 BECMG TL1350 VRB02KT
TAF LTFE 121040Z 1212/1312 VRB02KT 9999 FEW035 
     TEMPO 1212/1215 34012KT 
     BECMG 1220/1222 CAVOK 
     BECMG 1308/1311 FEW035 BKN100
       
LTCK 121325Z 20009KT 130V240 6000 RA FEW018 BKN030 OVC070 06/04 Q1011 RMK RWY11 20014KT
TAF LTCK 121040Z 1212/1221 19015G30KT 7000 -RA SCT015 BKN070 
     TEMPO 1212/1216 +RA BKN025 OVC060 
     TEMPO 1216/1220 4000 RASN BKN025 OVC060
       
LTAJ 121320Z 17006KT 9999 FEW007 SCT022 BKN080 10/09 Q1010 R282///56 NOSIG
TAF LTAJ 121040Z 1212/1312 21012KT 9999 SCT030 BKN090 
     TEMPO 1212/1215 22022KT -SHRA FEW020CB BKN030 
     BECMG 1220/1222 27007KT CAVOK 
     BECMG 1301/1303 33010KT 
     BECMG 1308/1310 SCT040
       
LTFJ 121320Z 27008KT 9999 SCT011 BKN029 04/02 Q1018 NOSIG RMK RWY24 25006KT
TAF LTFJ 121040Z 1212/1312 29009KT 9999 SCT011 BKN028 
     TEMPO 1212/1215 -RA 
     PROB40 1215/1218 -RASN 
     BECMG 1218/1221 SCT035 
     BECMG 1222/1301 23010KT
       
TAF LTBX 121040Z 1212/1221 29009KT 9999 SCT011 BKN028 
     TEMPO 1212/1213 4000 -SN 
     TEMPO 1213/1217 -RASN 
     BECMG 1218/1221 SCT035
       
TAF LTCL 121040Z 1212/1221 14016KT 9999 SCT040 BKN100 
     TEMPO 1212/1216 4000 -SHRA BKN035 BKN090 
     TEMPO 1216/1220 2500 -RA BKN035 BKN090
       
LTCM 121250Z 24006KT 9999 -RA BKN030 OVC070 07/05 Q1015
TAF LTCM 121040Z 1212/1221 25012KT 6000 -RA FEW015 BKN025 OVC070
       
TAF LTAV 121040Z 1212/1221 VRB02KT 6000 -SN FEW010 BKN030 BKN100 
     TEMPO 1212/1215 2500 BR
       
LTFC 121320Z VRB02KT 9999 SCT035 BKN100 04/M01 Q1014 RMK RWY23 27004KT 220V350
TAF LTFC 121040Z 1212/1312 30012KT 9999 SCT030 BKN090 
     TEMPO 1212/1216 -RA 
     BECMG 1218/1222 VRB02KT CAVOK 
     BECMG 1302/1306 1000 BCFG
       
LTAW 121250Z 24007KT 9999 -RA SCT011 BKN027 OVC080 03/01 Q1013
TAF LTAW 121040Z 1212/1221 24008KT 6000 -RA SCT010 BKN029 BKN080 
     TEMPO 1212/1215 4000 -RASN
       
LTBQ 121250Z 25005KT 190V290 6000 -RA SCT014 BKN020 BKN070 04/04 Q1018 TEMPO 2500 BR
TAF LTBQ 121040Z 1212/1221 27009KT 6000 SCT012 BKN020 BKN070 
     TEMPO 1212/1216 2500 -RASN BR 
     BECMG 1216/1219 SCT035 
     PROB40 1219/1221 1500 BCFG
       
LTCG 121320Z 28007KT 220V320 9999 -SHRA SCT012 BKN028 09/06 Q1013 NOSIG RMK RWY29 27007KT 240V300
TAF LTCG 121040Z 1212/1312 26009KT 9999 -SHRA SCT012 BKN028 
     PROB30 1215/1218 27015G25KT 3500 TSRA BKN006 FEW020CB BKN028 
     BECMG 1218/1221 SCT015 BKN033 
     BECMG 1304/1307 32014KT SCT035 BKN100
       
LTCI 121250Z 18024G34KT 9999 SCT040 BKN080 08/M02 Q1010 NOSIG
TAF LTCI 121040Z 1212/1221 19022G40KT 9999 SCT035 BKN080 
     PROB40 
     TEMPO 1216/1220 -RA BKN030
       
TAF LTBP 121040Z 1212/1221 27012KT 7000 -SHRA BKN025 BKN080
       
LTBR 121320Z 27008KT 8000 -SHRA FEW011 BKN023 03/03 Q1018 NOSIG RMK RWY07 26010KT
TAF LTBR 121040Z 1212/1312 28007KT 7000 FEW012 BKN025 
     TEMPO 1212/1214 -SHRA 
     BECMG 1213/1217 SCT035 BKN100 
     BECMG 1218/1221 4000 BR NSC 
     BECMG 1223/1302 2000 
     PROB40 1302/1306 0400 FG VV002 
     BECMG 1306/1310 7000 SCT040